createdAt,value
2023-04-30T00:02:16.043Z,9.26
2023-04-30T00:04:43.208Z,9.26
2023-04-30T00:07:10.249Z,9.26
2023-04-30T00:09:37.339Z,9.28
2023-04-30T00:12:04.647Z,9.29
2023-04-30T00:14:31.623Z,9.30
2023-04-30T00:16:58.755Z,9.29
2023-04-30T00:19:26.073Z,9.27
2023-04-30T00:21:53.130Z,9.26
2023-04-30T00:24:20.211Z,9.22
2023-04-30T00:26:48.040Z,9.22
2023-04-30T00:29:15.089Z,9.23
2023-04-30T00:31:42.489Z,9.23
2023-04-30T00:34:09.687Z,9.23
2023-04-30T00:36:36.942Z,9.23
2023-04-30T00:39:04.400Z,9.22
2023-04-30T00:41:31.550Z,9.23
2023-04-30T00:43:58.613Z,9.22
2023-04-30T00:46:25.972Z,9.21
2023-04-30T00:48:53.205Z,9.21
2023-04-30T00:51:20.614Z,9.21
2023-04-30T00:53:47.767Z,9.21
2023-04-30T00:56:16.668Z,9.22
2023-04-30T00:58:43.851Z,9.22
2023-04-30T01:01:10.992Z,9.23
2023-04-30T01:03:38.248Z,9.23
2023-04-30T01:06:05.869Z,9.23
2023-04-30T01:08:33.078Z,9.22
2023-04-30T01:11:08.606Z,9.21
2023-04-30T01:13:41.153Z,9.19
2023-04-30T01:16:19.281Z,9.17
2023-04-30T01:18:52.897Z,9.16
2023-04-30T01:21:22.954Z,9.16
2023-04-30T01:23:59.310Z,9.15
2023-04-30T01:27:08.637Z,9.14
2023-04-30T01:29:36.282Z,9.13
2023-04-30T01:32:04.054Z,9.14
2023-04-30T01:34:31.300Z,9.14
2023-04-30T01:37:16.789Z,9.16
2023-04-30T01:40:16.998Z,9.17
2023-04-30T01:43:11.310Z,9.18
2023-04-30T01:45:41.507Z,9.17
2023-04-30T01:48:19.160Z,9.17
2023-04-30T01:50:56.000Z,9.16
2023-04-30T01:53:33.496Z,9.15
2023-04-30T01:56:03.560Z,9.15
2023-04-30T01:58:31.325Z,9.12
2023-04-30T02:00:58.834Z,9.11
2023-04-30T02:03:26.107Z,9.10
2023-04-30T02:05:53.330Z,9.09
2023-04-30T02:08:21.334Z,9.08
2023-04-30T02:10:48.493Z,9.08
2023-04-30T02:13:15.799Z,9.09
2023-04-30T02:15:43.040Z,9.10
2023-04-30T02:18:10.275Z,9.11
2023-04-30T02:20:37.572Z,9.11
2023-04-30T02:23:04.705Z,9.12
2023-04-30T02:25:33.283Z,9.13
2023-04-30T02:28:00.537Z,9.14
2023-04-30T02:30:28.338Z,9.14
2023-04-30T02:32:56.701Z,9.16
2023-04-30T02:35:23.926Z,9.17
2023-04-30T02:37:51.232Z,9.17
2023-04-30T02:40:18.650Z,9.16
2023-04-30T02:42:45.713Z,9.17
2023-04-30T02:45:12.847Z,9.19
2023-04-30T02:47:40.663Z,9.20
2023-04-30T02:50:08.379Z,9.21
2023-04-30T02:52:35.515Z,9.21
2023-04-30T02:55:02.558Z,9.21
2023-04-30T02:57:29.708Z,9.21
2023-04-30T02:59:57.334Z,9.21
2023-04-30T03:02:24.765Z,9.23
2023-04-30T03:04:51.856Z,9.23
2023-04-30T03:07:18.952Z,9.24
2023-04-30T03:09:46.815Z,9.26
2023-04-30T03:12:14.968Z,9.28
2023-04-30T03:14:42.246Z,9.30
2023-04-30T03:17:09.673Z,9.31
2023-04-30T03:19:36.721Z,9.35
2023-04-30T03:22:03.873Z,9.38
2023-04-30T03:24:31.228Z,9.44
2023-04-30T03:26:58.438Z,9.52
2023-04-30T03:29:25.891Z,9.54
2023-04-30T03:31:53.600Z,9.58
2023-04-30T03:34:20.901Z,9.61
2023-04-30T03:36:48.585Z,9.62
2023-04-30T03:39:16.338Z,9.64
2023-04-30T03:41:43.944Z,9.64
2023-04-30T03:44:16.152Z,9.64
2023-04-30T03:46:44.006Z,9.67
2023-04-30T03:49:11.539Z,9.68
2023-04-30T03:51:42.170Z,9.68
2023-04-30T03:54:09.728Z,9.70
2023-04-30T03:56:36.981Z,9.70
2023-04-30T03:59:05.594Z,9.69
2023-04-30T04:01:33.078Z,9.71
2023-04-30T04:04:00.395Z,9.70
2023-04-30T04:06:27.609Z,9.73
2023-04-30T04:08:54.822Z,9.78
2023-04-30T04:11:22.760Z,9.83
2023-04-30T04:13:50.004Z,9.84
2023-04-30T04:16:17.323Z,9.85
2023-04-30T04:18:44.764Z,9.86
2023-04-30T04:21:13.154Z,9.86
2023-04-30T04:23:40.360Z,9.86
2023-04-30T04:26:07.414Z,9.87
2023-04-30T04:28:34.657Z,9.92
2023-04-30T04:31:03.301Z,9.95
2023-04-30T04:33:31.192Z,9.99
2023-04-30T04:35:58.658Z,10.02
2023-04-30T04:38:26.648Z,10.06
2023-04-30T04:40:54.672Z,10.10
2023-04-30T04:43:22.580Z,10.14
2023-04-30T04:45:50.155Z,10.15
2023-04-30T04:56:08.520Z,10.34
2023-04-30T04:58:35.576Z,10.37
2023-04-30T05:01:03.222Z,10.40
2023-04-30T05:03:31.595Z,10.46
2023-04-30T05:05:59.376Z,10.53
2023-04-30T05:08:26.991Z,10.58
2023-04-30T05:10:54.189Z,10.62
2023-04-30T05:13:21.573Z,10.65
2023-04-30T05:15:52.253Z,10.65
2023-04-30T05:18:20.269Z,10.70
2023-04-30T05:20:47.384Z,10.72
2023-04-30T05:23:14.435Z,10.75
2023-04-30T05:25:41.582Z,10.79
2023-04-30T05:28:09.145Z,10.81
2023-04-30T05:30:36.779Z,10.85
2023-04-30T05:33:04.014Z,10.89
2023-04-30T05:35:31.736Z,10.91
2023-04-30T05:37:58.979Z,10.91
2023-04-30T05:40:26.041Z,10.93
2023-04-30T05:42:53.183Z,10.94
2023-04-30T05:45:20.217Z,10.94
2023-04-30T05:47:47.453Z,10.97
2023-04-30T05:50:14.825Z,11.02
2023-04-30T05:52:41.868Z,11.09
2023-04-30T05:55:10.014Z,11.17
2023-04-30T05:57:37.091Z,11.22
2023-04-30T06:00:06.924Z,11.26
2023-04-30T06:02:39.528Z,11.28
2023-04-30T06:05:08.176Z,11.21
2023-04-30T06:07:35.253Z,11.13
2023-04-30T06:10:02.877Z,11.17
2023-04-30T06:12:29.989Z,11.23
2023-04-30T06:14:57.705Z,11.26
2023-04-30T06:17:24.867Z,11.24
2023-04-30T06:19:52.189Z,11.25
2023-04-30T06:22:19.348Z,11.28
2023-04-30T06:24:46.670Z,11.34
2023-04-30T06:27:13.747Z,11.40
2023-04-30T06:29:41.112Z,11.44
2023-04-30T06:32:08.636Z,11.49
2023-04-30T06:34:37.088Z,11.54
2023-04-30T06:37:04.202Z,11.57
2023-04-30T06:39:31.555Z,11.59
2023-04-30T06:41:58.600Z,11.62
2023-04-30T06:44:27.791Z,11.70
2023-04-30T06:46:55.062Z,11.78
2023-04-30T06:49:22.206Z,11.84
2023-04-30T06:51:49.289Z,11.91
2023-04-30T06:54:16.720Z,12.00
2023-04-30T06:56:45.307Z,12.13
2023-04-30T06:59:12.450Z,12.24
2023-04-30T07:01:39.664Z,12.27
2023-04-30T07:04:06.839Z,12.29
2023-04-30T07:06:34.142Z,12.36
2023-04-30T07:09:01.477Z,12.50
2023-04-30T07:11:28.528Z,12.61
2023-04-30T07:13:56.008Z,12.69
2023-04-30T07:16:25.711Z,12.73
2023-04-30T07:18:52.930Z,12.79
2023-04-30T07:21:19.970Z,12.86
2023-04-30T07:23:46.963Z,13.01
2023-04-30T07:26:14.869Z,13.19
2023-04-30T07:28:41.913Z,13.36
2023-04-30T07:31:09.192Z,13.56
2023-04-30T07:33:36.285Z,13.75
2023-04-30T07:36:03.773Z,13.92
2023-04-30T07:38:31.125Z,14.05
2023-04-30T07:40:58.198Z,14.10
2023-04-30T07:43:25.869Z,14.13
2023-04-30T07:45:54.663Z,14.18
2023-04-30T07:48:22.491Z,14.27
2023-04-30T07:50:50.788Z,14.34
2023-04-30T07:53:19.788Z,14.45
2023-04-30T07:55:47.459Z,14.56
2023-04-30T07:58:14.573Z,14.71
2023-04-30T08:00:41.724Z,14.90
2023-04-30T08:03:09.329Z,15.03
2023-04-30T08:05:36.768Z,15.13
2023-04-30T08:08:04.037Z,15.16
2023-04-30T08:10:32.276Z,15.18
2023-04-30T08:12:59.537Z,15.20
2023-04-30T08:15:27.592Z,15.19
2023-04-30T08:17:55.884Z,15.15
2023-04-30T08:20:26.549Z,15.09
2023-04-30T08:22:53.665Z,15.03
2023-04-30T08:25:20.908Z,14.96
2023-04-30T08:27:47.988Z,14.88
2023-04-30T08:30:15.103Z,14.82
2023-04-30T08:32:42.235Z,14.76
2023-04-30T08:35:10.232Z,14.72
2023-04-30T08:37:37.409Z,14.70
2023-04-30T08:40:05.344Z,14.69
2023-04-30T08:42:34.346Z,14.73
2023-04-30T08:45:01.798Z,14.78
2023-04-30T08:47:28.951Z,14.87
2023-04-30T08:49:56.458Z,14.96
2023-04-30T08:52:23.853Z,15.07
2023-04-30T08:54:51.424Z,15.16
2023-04-30T08:57:19.133Z,15.14
2023-04-30T08:59:49.022Z,15.08
2023-04-30T09:02:16.534Z,15.02
2023-04-30T09:04:43.614Z,14.92
2023-04-30T09:07:12.189Z,14.84
2023-04-30T09:09:39.692Z,14.91
2023-04-30T09:12:19.411Z,15.10
2023-04-30T09:15:02.356Z,15.37
2023-04-30T09:17:30.148Z,15.64
2023-04-30T09:20:13.621Z,15.82
2023-04-30T09:22:42.002Z,15.92
2023-04-30T09:25:10.257Z,15.90
2023-04-30T09:27:37.934Z,15.83
2023-04-30T09:30:05.992Z,15.71
2023-04-30T09:32:33.157Z,15.56
2023-04-30T09:35:00.312Z,15.47
2023-04-30T09:37:38.107Z,15.43
2023-04-30T09:40:05.898Z,15.39
2023-04-30T09:42:32.921Z,15.37
2023-04-30T09:45:00.281Z,15.41
2023-04-30T09:47:29.841Z,15.46
2023-04-30T09:49:57.104Z,15.60
2023-04-30T09:52:24.772Z,15.64
2023-04-30T09:54:51.747Z,15.62
2023-04-30T09:57:18.874Z,15.62
2023-04-30T09:59:46.921Z,15.60
2023-04-30T10:02:16.292Z,15.52
2023-04-30T10:04:44.011Z,15.42
2023-04-30T10:07:15.879Z,15.30
2023-04-30T10:09:47.226Z,15.23
2023-04-30T10:12:15.467Z,15.21
2023-04-30T10:14:46.652Z,15.19
2023-04-30T10:17:14.795Z,15.11
2023-04-30T10:19:47.728Z,14.98
2023-04-30T10:22:15.307Z,14.88
2023-04-30T10:24:43.451Z,14.84
2023-04-30T10:27:10.585Z,14.75
2023-04-30T10:29:37.872Z,14.71
2023-04-30T10:32:05.445Z,14.70
2023-04-30T10:35:02.398Z,14.71
2023-04-30T10:37:47.631Z,14.81
2023-04-30T10:40:15.211Z,14.84
2023-04-30T10:42:49.176Z,14.89
2023-04-30T10:45:16.845Z,14.96
2023-04-30T10:47:45.863Z,15.10
2023-04-30T10:50:13.557Z,15.24
2023-04-30T10:52:40.754Z,15.42
2023-04-30T10:55:08.765Z,15.57
2023-04-30T10:57:43.507Z,15.71
2023-04-30T11:00:10.728Z,15.78
2023-04-30T11:02:45.210Z,15.78
2023-04-30T11:05:16.364Z,15.81
2023-04-30T11:07:50.705Z,15.78
2023-04-30T11:10:21.950Z,15.76
2023-04-30T11:12:49.665Z,15.74
2023-04-30T11:15:18.562Z,15.71
2023-04-30T11:17:46.135Z,15.70
2023-04-30T11:20:14.872Z,15.72
2023-04-30T11:22:41.993Z,15.79
2023-04-30T11:25:10.260Z,15.86
2023-04-30T11:27:38.563Z,15.87
2023-04-30T11:30:10.928Z,15.80
2023-04-30T11:32:38.678Z,15.71
2023-04-30T11:35:07.097Z,15.61
2023-04-30T11:37:35.756Z,15.52
2023-04-30T11:40:04.468Z,15.48
2023-04-30T11:42:34.699Z,15.47
2023-04-30T11:45:09.642Z,15.47
2023-04-30T11:47:41.463Z,15.51
2023-04-30T11:50:10.382Z,15.58
2023-04-30T11:52:38.247Z,15.59
2023-04-30T11:55:19.292Z,15.58
2023-04-30T11:57:47.802Z,15.56
2023-04-30T12:00:16.607Z,15.59
2023-04-30T12:02:45.981Z,15.65
2023-04-30T12:05:17.658Z,15.71
2023-04-30T12:07:52.348Z,15.77
2023-04-30T12:10:20.550Z,15.86
2023-04-30T12:12:49.648Z,16.00
2023-04-30T12:15:23.345Z,16.16
2023-04-30T12:17:50.722Z,16.27
2023-04-30T12:20:18.952Z,16.30
2023-04-30T12:22:46.191Z,16.27
2023-04-30T12:25:14.796Z,16.18
2023-04-30T12:27:43.153Z,16.04
2023-04-30T12:30:10.583Z,15.95
2023-04-30T12:32:45.190Z,15.95
2023-04-30T12:35:17.125Z,16.00
2023-04-30T12:38:03.349Z,16.03
2023-04-30T12:40:30.996Z,16.02
2023-04-30T12:43:02.891Z,16.09
2023-04-30T12:45:55.896Z,16.22
2023-04-30T12:48:24.701Z,16.44
2023-04-30T12:50:56.618Z,16.66
2023-04-30T12:53:24.400Z,16.89
2023-04-30T12:56:09.583Z,17.05
2023-04-30T12:58:38.610Z,17.16
2023-04-30T13:01:06.627Z,17.29
2023-04-30T13:03:33.817Z,17.36
2023-04-30T13:06:03.153Z,17.42
2023-04-30T13:08:30.712Z,17.43
2023-04-30T13:10:58.497Z,17.36
2023-04-30T13:13:26.256Z,17.26
2023-04-30T13:15:53.275Z,17.13
2023-04-30T13:18:20.660Z,16.99
2023-04-30T13:20:48.055Z,16.86
2023-04-30T13:23:15.196Z,16.72
2023-04-30T13:25:42.343Z,16.55
2023-04-30T13:28:09.486Z,16.39
2023-04-30T13:30:36.624Z,16.15
2023-04-30T13:33:04.029Z,15.91
2023-04-30T13:35:31.428Z,15.71
2023-04-30T13:38:02.157Z,15.63
2023-04-30T13:40:29.695Z,15.64
2023-04-30T13:42:56.780Z,15.69
2023-04-30T13:45:24.139Z,15.80
2023-04-30T13:47:51.362Z,15.87
2023-04-30T13:50:18.557Z,15.85
2023-04-30T13:52:45.785Z,15.80
2023-04-30T13:55:14.376Z,15.75
2023-04-30T13:57:41.517Z,15.73
2023-04-30T14:00:09.289Z,15.69
2023-04-30T14:02:36.670Z,15.59
2023-04-30T14:05:06.318Z,15.43
2023-04-30T14:07:34.046Z,15.22
2023-04-30T14:10:01.281Z,15.03
2023-04-30T14:12:30.867Z,14.81
2023-04-30T14:14:58.062Z,14.63
2023-04-30T14:17:27.208Z,14.50
2023-04-30T14:19:55.049Z,14.42
2023-04-30T14:22:22.435Z,14.39
2023-04-30T14:24:49.613Z,14.37
2023-04-30T14:27:16.630Z,14.33
2023-04-30T14:29:43.708Z,14.27
2023-04-30T14:32:10.882Z,14.21
2023-04-30T14:34:38.506Z,14.15
2023-04-30T14:37:05.670Z,14.12
2023-04-30T14:39:33.093Z,14.11
2023-04-30T14:42:00.241Z,14.09
2023-04-30T14:44:27.336Z,14.05
2023-04-30T14:46:54.652Z,13.99
2023-04-30T14:49:21.812Z,13.95
2023-04-30T14:51:48.957Z,13.90
2023-04-30T14:54:16.714Z,13.85
2023-04-30T14:56:44.744Z,13.83
2023-04-30T14:59:12.142Z,13.84
2023-04-30T15:01:39.342Z,13.86
2023-04-30T15:04:07.387Z,13.87
2023-04-30T15:06:34.489Z,13.88
2023-04-30T15:09:02.077Z,13.86
2023-04-30T15:11:29.236Z,13.84
2023-04-30T15:13:56.374Z,13.81
2023-04-30T15:16:23.439Z,13.79
2023-04-30T15:18:50.726Z,13.76
2023-04-30T15:21:17.859Z,13.72
2023-04-30T15:23:46.130Z,13.68
2023-04-30T15:26:13.245Z,13.65
2023-04-30T15:28:40.309Z,13.62
2023-04-30T15:31:07.858Z,13.59
2023-04-30T15:33:39.768Z,13.55
2023-04-30T15:36:06.976Z,13.54
2023-04-30T15:38:34.626Z,13.55
2023-04-30T15:41:01.965Z,13.52
2023-04-30T15:43:30.338Z,13.52
2023-04-30T15:45:57.518Z,13.51
2023-04-30T15:48:25.845Z,13.52
2023-04-30T15:50:53.084Z,13.51
2023-04-30T15:53:20.189Z,13.50
2023-04-30T15:55:48.882Z,13.47
2023-04-30T15:58:16.552Z,13.43
2023-04-30T16:00:43.997Z,13.40
2023-04-30T16:03:11.913Z,13.34
2023-04-30T16:05:40.721Z,13.31
2023-04-30T16:08:09.089Z,13.28
2023-04-30T16:10:37.050Z,13.25
2023-04-30T16:13:04.150Z,13.26
2023-04-30T16:15:31.233Z,13.25
2023-04-30T16:17:58.381Z,13.23
2023-04-30T16:20:25.504Z,13.20
2023-04-30T16:22:52.869Z,13.19
2023-04-30T16:25:20.920Z,13.19
2023-04-30T16:27:48.182Z,13.19
2023-04-30T16:30:15.424Z,13.17
2023-04-30T16:32:42.531Z,13.15
2023-04-30T16:35:10.279Z,13.18
2023-04-30T16:37:37.420Z,13.22
2023-04-30T16:40:06.541Z,13.22
2023-04-30T16:42:34.949Z,13.20
2023-04-30T16:45:02.327Z,13.19
2023-04-30T16:47:29.481Z,13.15
2023-04-30T16:49:58.776Z,13.12
2023-04-30T16:52:26.120Z,13.06
2023-04-30T16:54:53.269Z,13.01
2023-04-30T16:57:21.357Z,12.98
2023-04-30T16:59:48.845Z,12.96
2023-04-30T17:02:16.266Z,12.94
2023-04-30T17:04:43.433Z,12.94
2023-04-30T17:07:12.828Z,12.93
2023-04-30T17:09:39.867Z,12.94
2023-04-30T17:12:08.235Z,12.96
2023-04-30T17:14:35.502Z,12.97
2023-04-30T17:17:02.642Z,12.99
2023-04-30T17:19:29.831Z,13.01
2023-04-30T17:21:57.543Z,13.02
2023-04-30T17:24:25.252Z,13.04
2023-04-30T17:26:52.677Z,13.06
2023-04-30T17:29:23.779Z,13.08
2023-04-30T17:31:50.992Z,13.09
2023-04-30T17:34:18.395Z,13.10
2023-04-30T17:36:45.445Z,13.10
2023-04-30T17:39:12.879Z,13.13
2023-04-30T17:41:40.122Z,13.12
2023-04-30T17:44:07.245Z,13.10
2023-04-30T17:46:34.581Z,13.08
2023-04-30T17:49:03.690Z,13.05
2023-04-30T17:51:31.814Z,13.02
2023-04-30T17:54:01.978Z,13.02
2023-04-30T17:56:31.481Z,12.97
2023-04-30T17:58:59.048Z,12.95
2023-04-30T18:01:27.085Z,12.93
2023-04-30T18:03:54.399Z,12.90
2023-04-30T18:06:21.768Z,12.86
2023-04-30T18:08:48.970Z,12.82
2023-04-30T18:11:16.152Z,12.77
2023-04-30T18:13:43.296Z,12.73
2023-04-30T18:16:10.857Z,12.69
2023-04-30T18:18:37.923Z,12.65
2023-04-30T18:21:05.436Z,12.67
2023-04-30T18:23:32.587Z,12.67
2023-04-30T18:25:59.736Z,12.68
2023-04-30T18:28:26.991Z,12.72
2023-04-30T18:30:54.889Z,12.75
2023-04-30T18:33:22.311Z,12.76
2023-04-30T18:35:51.655Z,12.76
2023-04-30T18:38:18.983Z,12.76
2023-04-30T18:40:46.524Z,12.77
2023-04-30T18:43:14.768Z,12.78
2023-04-30T18:45:42.067Z,12.79
2023-04-30T18:48:09.248Z,12.77
2023-04-30T18:50:36.263Z,12.76
2023-04-30T18:53:03.415Z,12.76
2023-04-30T18:55:30.501Z,12.77
2023-04-30T18:57:57.676Z,12.78
2023-04-30T19:00:24.776Z,12.78
2023-04-30T19:02:51.965Z,12.79
2023-04-30T19:05:19.816Z,12.80
2023-04-30T19:07:47.052Z,12.80
2023-04-30T19:10:14.482Z,12.81
2023-04-30T19:12:44.111Z,12.81
2023-04-30T19:15:15.064Z,12.81
2023-04-30T19:17:42.532Z,12.82
2023-04-30T19:20:10.555Z,12.81
2023-04-30T19:22:38.213Z,12.78
2023-04-30T19:25:05.892Z,12.75
2023-04-30T19:27:32.919Z,12.72
2023-04-30T19:30:00.050Z,12.70
2023-04-30T19:32:27.354Z,12.67
2023-04-30T19:34:54.513Z,12.65
2023-04-30T19:37:21.852Z,12.63
2023-04-30T19:39:48.986Z,12.61
2023-04-30T19:42:16.740Z,12.59
2023-04-30T19:44:43.892Z,12.56
2023-04-30T19:47:11.042Z,12.54
2023-04-30T19:49:38.155Z,12.53
2023-04-30T19:52:07.805Z,12.52
2023-04-30T19:54:34.905Z,12.51
2023-04-30T19:57:02.358Z,12.51
2023-04-30T19:59:29.692Z,12.51
2023-04-30T20:01:57.232Z,12.52
2023-04-30T20:04:26.557Z,12.51
2023-04-30T20:06:57.063Z,12.50
2023-04-30T20:09:24.987Z,12.49
2023-04-30T20:11:52.380Z,12.49
2023-04-30T20:14:19.729Z,12.50
2023-04-30T20:16:52.509Z,12.50
2023-04-30T20:19:20.246Z,12.47
2023-04-30T20:21:49.563Z,12.49
2023-04-30T20:24:16.888Z,12.49
2023-04-30T20:26:44.089Z,12.43
2023-04-30T20:29:11.054Z,12.41
2023-04-30T20:31:38.236Z,12.41
2023-04-30T20:34:05.448Z,12.41
2023-04-30T20:36:32.635Z,12.40
2023-04-30T20:38:59.729Z,12.37
2023-04-30T20:41:27.289Z,12.35
2023-04-30T20:43:54.937Z,12.32
2023-04-30T20:46:25.028Z,12.28
2023-04-30T20:48:54.746Z,12.24
2023-04-30T20:51:23.607Z,12.21
2023-04-30T20:53:50.652Z,12.18
2023-04-30T20:56:17.776Z,12.18
2023-04-30T20:58:45.327Z,12.17
2023-04-30T21:04:34.850Z,12.15
2023-04-30T21:07:02.280Z,12.12
2023-04-30T21:09:29.459Z,12.11
2023-04-30T21:11:56.607Z,12.12
2023-04-30T21:14:23.663Z,12.14
2023-04-30T21:16:51.488Z,12.16
2023-04-30T21:19:18.741Z,12.18
2023-04-30T21:21:46.536Z,12.21
2023-04-30T21:24:13.689Z,12.22
2023-04-30T21:26:41.111Z,12.25
2023-04-30T21:29:08.244Z,12.26
2023-04-30T21:31:37.354Z,12.25
2023-04-30T21:34:04.542Z,12.24
2023-04-30T21:36:31.904Z,12.24
2023-04-30T21:38:59.563Z,12.23
2023-04-30T21:41:28.171Z,12.23
2023-04-30T21:43:55.613Z,12.21
2023-04-30T21:46:22.793Z,12.18
2023-04-30T21:48:50.525Z,12.16
2023-04-30T21:51:17.891Z,12.13
2023-04-30T21:53:45.715Z,12.09
2023-04-30T21:56:12.903Z,12.07
2023-04-30T21:58:40.063Z,12.03
2023-04-30T22:01:07.446Z,12.01
2023-04-30T22:03:35.471Z,11.99
2023-04-30T22:06:02.725Z,11.97
2023-04-30T22:08:30.061Z,11.97
2023-04-30T22:11:00.618Z,11.97
2023-04-30T22:13:28.308Z,11.98
2023-04-30T22:15:55.593Z,11.98
2023-04-30T22:18:23.163Z,11.96
2023-04-30T22:20:51.241Z,11.96
2023-04-30T22:23:21.271Z,11.95
2023-04-30T22:25:48.613Z,11.96
2023-04-30T22:28:19.707Z,11.96
2023-04-30T22:30:47.003Z,11.97
2023-04-30T22:33:14.159Z,11.97
2023-04-30T22:35:41.303Z,12.01
2023-04-30T22:38:08.572Z,12.02
2023-04-30T22:40:39.541Z,12.02
2023-04-30T22:43:06.654Z,12.05
2023-04-30T22:45:37.124Z,12.06
2023-04-30T22:48:04.573Z,12.06
2023-04-30T22:50:32.204Z,12.08
2023-04-30T22:52:59.447Z,12.09
2023-04-30T22:55:27.288Z,12.10
2023-04-30T22:57:54.363Z,12.09
2023-04-30T23:00:21.508Z,12.08
2023-04-30T23:02:49.034Z,12.05
2023-04-30T23:05:16.524Z,12.02
2023-04-30T23:07:43.587Z,11.99
2023-04-30T23:10:11.240Z,11.94
2023-04-30T23:12:39.085Z,11.91
2023-04-30T23:15:06.762Z,11.88
2023-04-30T23:17:33.946Z,11.85
2023-04-30T23:20:01.109Z,11.83
2023-04-30T23:22:28.230Z,11.81
2023-04-30T23:24:57.408Z,11.80
2023-04-30T23:27:24.982Z,11.79
2023-04-30T23:29:52.017Z,11.84
2023-04-30T23:32:19.255Z,11.82
2023-04-30T23:34:47.747Z,11.79
2023-04-30T23:37:14.910Z,11.76
2023-04-30T23:39:41.951Z,11.74
2023-04-30T23:42:09.207Z,11.73
2023-04-30T23:44:36.341Z,11.72
2023-04-30T23:47:03.813Z,11.72
2023-04-30T23:49:30.789Z,11.71
2023-04-30T23:51:57.826Z,11.71
2023-04-30T23:54:24.958Z,11.65
2023-04-30T23:56:52.919Z,11.66
2023-04-30T23:59:20.512Z,11.64
